createdAt,value
2019-02-02T05:00:19.886Z,91.90
2019-02-02T05:02:42.561Z,98.10
2019-02-02T05:05:05.960Z,95.00
2019-02-02T05:07:28.466Z,86.70
2019-02-02T05:09:50.871Z,95.87
2019-02-02T05:12:13.396Z,96.77
2019-02-02T05:14:35.895Z,108.17
2019-02-02T06:02:36.236Z,89.47
2019-02-02T06:04:58.665Z,83.67
2019-02-02T06:07:21.073Z,92.40
2019-02-02T06:09:43.497Z,118.13
2019-02-02T06:12:05.908Z,94.50
2019-02-02T06:14:28.423Z,93.33
2019-02-02T07:02:20.115Z,89.80
2019-02-02T07:04:42.658Z,82.73
2019-02-02T07:07:05.076Z,100.57
2019-02-02T07:09:27.509Z,101.93
2019-02-02T07:11:50.005Z,109.30
2019-02-02T07:14:12.474Z,100.03
2019-02-02T08:02:05.867Z,90.80
2019-02-02T08:04:28.306Z,82.53
2019-02-02T08:06:50.869Z,77.87
2019-02-02T08:09:13.378Z,83.63
2019-02-02T08:11:47.923Z,82.07
2019-02-02T08:14:23.110Z,77.23
2019-02-02T09:00:27.490Z,49.03
2019-02-02T09:02:49.937Z,45.97
2019-02-02T09:05:13.330Z,45.23
2019-02-02T09:07:38.320Z,42.13
2019-02-02T09:10:00.181Z,46.10
2019-02-02T09:12:22.679Z,48.57
2019-02-02T09:14:45.107Z,44.13
2019-02-02T10:00:42.238Z,27.47
2019-02-02T10:03:04.689Z,27.07
2019-02-02T10:05:28.192Z,28.70
2019-02-02T10:07:50.674Z,28.63
2019-02-02T10:10:15.486Z,28.37
2019-02-02T10:12:37.897Z,27.17
2019-02-02T10:15:00.425Z,27.03
2019-02-02T11:02:33.586Z,23.67
2019-02-02T11:04:56.175Z,23.03
2019-02-02T11:07:18.860Z,25.33
2019-02-02T11:09:41.455Z,22.80
2019-02-02T11:12:04.062Z,20.43
2019-02-02T11:14:26.550Z,23.67
2019-02-02T12:01:15.094Z,22.17
2019-02-02T12:03:37.546Z,19.47
2019-02-02T12:06:00.085Z,19.90
2019-02-02T12:08:22.595Z,16.47
2019-02-02T12:10:45.042Z,14.67
2019-02-02T12:13:07.542Z,15.53
2019-02-02T12:26:54.165Z,13.57
2019-02-02T12:29:16.585Z,15.50
2019-02-02T12:31:39.003Z,14.77
2019-02-02T12:34:01.438Z,15.83
2019-02-02T12:36:23.842Z,13.00
2019-02-02T12:38:46.254Z,13.20
2019-02-02T12:41:08.674Z,12.50
2019-02-02T12:43:31.085Z,13.67
2019-02-02T12:45:53.499Z,14.27
2019-02-02T12:48:15.945Z,14.63
2019-02-02T12:50:38.341Z,10.07
2019-02-02T12:53:00.742Z,10.20
2019-02-02T12:55:25.921Z,10.63
2019-02-02T12:57:47.471Z,10.53
2019-02-02T13:00:13.183Z,13.83
2019-02-02T13:02:38.221Z,10.23
2019-02-02T13:05:00.022Z,10.30
2019-02-02T13:07:22.446Z,11.03
2019-02-02T13:09:44.850Z,9.00
2019-02-02T13:12:07.338Z,8.57
2019-02-02T13:14:29.751Z,9.10
2019-02-02T13:22:25.579Z,8.47
2019-02-02T13:24:47.994Z,9.97
2019-02-02T13:27:10.414Z,8.37
2019-02-02T13:29:33.746Z,7.47
2019-02-02T13:31:56.165Z,9.13
2019-02-02T13:34:18.650Z,10.83
2019-02-02T13:36:41.175Z,8.73
2019-02-02T13:39:07.778Z,9.00
2019-02-02T13:41:30.295Z,11.23
2019-02-02T13:43:53.928Z,10.10
2019-02-02T13:46:16.339Z,10.23
2019-02-02T13:48:38.739Z,8.27
2019-02-02T13:51:01.176Z,9.43
2019-02-02T13:53:23.663Z,11.27
2019-02-02T13:55:46.062Z,9.57
2019-02-02T13:58:08.495Z,12.13
2019-02-02T14:00:31.082Z,11.30
2019-02-02T14:03:03.024Z,10.20
2019-02-02T14:05:21.235Z,12.80
2019-02-02T14:07:43.730Z,9.83
2019-02-02T14:10:07.881Z,10.13
2019-02-02T14:12:30.414Z,8.73
2019-02-02T14:14:52.819Z,9.23
2019-02-02T15:01:41.865Z,7.60
2019-02-02T15:04:04.540Z,9.57
2019-02-02T15:06:27.059Z,7.57
2019-02-02T15:08:49.594Z,9.43
2019-02-02T15:11:12.122Z,10.43
2019-02-02T15:13:34.627Z,12.07
2019-02-02T15:18:43.927Z,13.37
2019-02-02T15:21:06.438Z,16.90
2019-02-02T15:23:29.718Z,13.50
2019-02-02T15:25:52.138Z,16.13
2019-02-02T15:28:14.646Z,15.93
2019-02-02T15:30:38.089Z,15.70
2019-02-02T15:41:52.901Z,13.73
2019-02-02T15:44:11.770Z,11.20
2019-02-02T15:46:34.291Z,13.13
2019-02-02T15:48:56.755Z,13.90
2019-02-02T15:51:19.188Z,15.57
2019-02-02T15:53:41.961Z,13.07
2019-02-02T15:56:04.884Z,13.60
2019-02-02T15:58:27.348Z,15.33
2019-02-02T16:00:49.770Z,16.77
2019-02-02T16:03:12.231Z,14.57
2019-02-02T16:05:35.671Z,13.17
2019-02-02T16:07:59.559Z,16.73
2019-02-02T16:10:23.908Z,16.70
2019-02-02T16:12:46.338Z,17.97
2019-02-02T16:57:52.642Z,22.43
2019-02-02T17:00:23.390Z,22.87
2019-02-02T17:03:05.319Z,21.23
2019-02-02T17:29:18.829Z,21.63
2019-02-02T17:31:53.502Z,24.10
2019-02-02T17:34:29.678Z,22.63
2019-02-02T19:02:36.744Z,24.13
2019-02-02T19:05:03.921Z,23.80
2019-02-02T19:07:23.480Z,25.47
2019-02-02T19:09:46.034Z,27.53
2019-02-02T19:12:08.466Z,25.93
2019-02-02T19:14:30.983Z,25.40
2019-02-02T20:00:34.906Z,33.87
2019-02-02T20:02:57.616Z,34.80
2019-02-02T20:05:28.232Z,37.47
2019-02-02T20:07:44.480Z,34.23
2019-02-02T20:10:09.378Z,31.20
2019-02-02T20:12:31.934Z,32.70
2019-02-02T20:14:54.405Z,30.90
2019-02-02T21:01:00.780Z,44.47
2019-02-02T21:03:23.990Z,55.43
2019-02-02T21:05:52.380Z,65.73
2019-02-02T21:08:10.993Z,61.57
2019-02-02T21:10:33.446Z,50.07
2019-02-02T21:12:55.999Z,43.90
